sensor_id;sensor_type;location;lat;lon;timestamp;pressure;altitude;pressure_sealevel;temperature;humidity
6134;BME280;3098;42.678;23.364;2023-07-20T00:00:36;94580.91;;;23.16;87.78
6134;BME280;3098;42.678;23.364;2023-07-20T00:03:12;94563.56;;;22.99;85.94
6134;BME280;3098;42.678;23.364;2023-07-20T00:05:42;94628.34;;;23.38;85.43
6134;BME280;3098;42.678;23.364;2023-07-20T00:08:10;94617.53;;;23.38;84.54
6134;BME280;3098;42.678;23.364;2023-07-20T00:10:37;94576.50;;;23.36;81.76
6134;BME280;3098;42.678;23.364;2023-07-20T00:13:04;94615.34;;;23.74;80.11
6134;BME280;3098;42.678;23.364;2023-07-20T00:15:31;94625.03;;;23.71;82.13
6134;BME280;3098;42.678;23.364;2023-07-20T00:17:59;94622.34;;;23.64;83.81
6134;BME280;3098;42.678;23.364;2023-07-20T00:20:28;94544.28;;;22.97;84.47
6134;BME280;3098;42.678;23.364;2023-07-20T00:22:55;94586.75;;;23.04;86.00
6134;BME280;3098;42.678;23.364;2023-07-20T00:25:23;94587.97;;;22.92;86.45
6134;BME280;3098;42.678;23.364;2023-07-20T00:27:50;94599.16;;;22.94;86.93
6134;BME280;3098;42.678;23.364;2023-07-20T00:30:18;94570.28;;;22.66;88.97
6134;BME280;3098;42.678;23.364;2023-07-20T00:32:45;94625.09;;;22.81;91.33
6134;BME280;3098;42.678;23.364;2023-07-20T00:35:13;94621.66;;;22.66;92.74
6134;BME280;3098;42.678;23.364;2023-07-20T00:37:41;94630.91;;;22.62;95.43
6134;BME280;3098;42.678;23.364;2023-07-20T00:40:08;94551.53;;;21.67;100.00
6134;BME280;3098;42.678;23.364;2023-07-20T00:42:35;94630.59;;;22.14;100.00
6134;BME280;3098;42.678;23.364;2023-07-20T00:45:03;94621.34;;;22.11;100.00
6134;BME280;3098;42.678;23.364;2023-07-20T00:47:31;94585.84;;;21.56;100.00
6134;BME280;3098;42.678;23.364;2023-07-20T00:49:59;94615.53;;;21.67;100.00
6134;BME280;3098;42.678;23.364;2023-07-20T00:52:27;94592.00;;;21.53;100.00
6134;BME280;3098;42.678;23.364;2023-07-20T00:54:56;94567.69;;;21.36;100.00
6134;BME280;3098;42.678;23.364;2023-07-20T00:57:24;94555.75;;;21.37;100.00
6134;BME280;3098;42.678;23.364;2023-07-20T00:59:52;94544.94;;;21.08;100.00
6134;BME280;3098;42.678;23.364;2023-07-20T01:02:20;94551.09;;;21.27;100.00
6134;BME280;3098;42.678;23.364;2023-07-20T01:04:47;94549.16;;;21.20;100.00
6134;BME280;3098;42.678;23.364;2023-07-20T01:07:20;94594.31;;;21.44;100.00
6134;BME280;3098;42.678;23.364;2023-07-20T01:10:00;94621.63;;;21.32;100.00
6134;BME280;3098;42.678;23.364;2023-07-20T01:12:32;94618.56;;;21.37;100.00
6134;BME280;3098;42.678;23.364;2023-07-20T01:15:04;94576.53;;;21.11;100.00
6134;BME280;3098;42.678;23.364;2023-07-20T01:17:33;94523.56;;;20.61;100.00
6134;BME280;3098;42.678;23.364;2023-07-20T01:20:00;94625.44;;;21.13;100.00
6134;BME280;3098;42.678;23.364;2023-07-20T01:22:42;94623.16;;;21.23;100.00
6134;BME280;3098;42.678;23.364;2023-07-20T01:25:34;94593.09;;;21.24;100.00
6134;BME280;3098;42.678;23.364;2023-07-20T01:28:22;94607.75;;;21.27;100.00
6134;BME280;3098;42.678;23.364;2023-07-20T01:31:08;94619.66;;;21.15;100.00
6134;BME280;3098;42.678;23.364;2023-07-20T01:33:36;94564.47;;;20.77;100.00
6134;BME280;3098;42.678;23.364;2023-07-20T01:36:04;94618.91;;;21.29;100.00
6134;BME280;3098;42.678;23.364;2023-07-20T01:38:32;94613.19;;;21.48;100.00
6134;BME280;3098;42.678;23.364;2023-07-20T01:41:00;94592.34;;;21.24;100.00
6134;BME280;3098;42.678;23.364;2023-07-20T01:43:27;94531.78;;;20.96;100.00
6134;BME280;3098;42.678;23.364;2023-07-20T01:45:55;94578.44;;;21.18;100.00
6134;BME280;3098;42.678;23.364;2023-07-20T01:48:23;94608.91;;;21.29;100.00
6134;BME280;3098;42.678;23.364;2023-07-20T01:50:50;94579.94;;;21.01;100.00
6134;BME280;3098;42.678;23.364;2023-07-20T01:53:17;94518.94;;;20.51;100.00
6134;BME280;3098;42.678;23.364;2023-07-20T01:55:44;94607.72;;;21.12;100.00
6134;BME280;3098;42.678;23.364;2023-07-20T01:58:11;94605.06;;;21.27;100.00
6134;BME280;3098;42.678;23.364;2023-07-20T02:00:39;94572.22;;;21.07;100.00
6134;BME280;3098;42.678;23.364;2023-07-20T02:03:06;94595.00;;;21.09;100.00
6134;BME280;3098;42.678;23.364;2023-07-20T02:05:34;94553.22;;;20.61;100.00
6134;BME280;3098;42.678;23.364;2023-07-20T02:08:02;94601.06;;;20.92;100.00
6134;BME280;3098;42.678;23.364;2023-07-20T02:10:29;94595.31;;;21.01;100.00
6134;BME280;3098;42.678;23.364;2023-07-20T02:12:56;94527.06;;;20.72;100.00
6134;BME280;3098;42.678;23.364;2023-07-20T02:15:23;94595.72;;;21.06;100.00
6134;BME280;3098;42.678;23.364;2023-07-20T02:17:50;94553.94;;;20.51;100.00
6134;BME280;3098;42.678;23.364;2023-07-20T02:20:17;94356.19;;;19.55;100.00
6134;BME280;3098;42.678;23.364;2023-07-20T02:22:46;94571.91;;;21.15;100.00
6134;BME280;3098;42.678;23.364;2023-07-20T02:25:13;94561.41;;;20.89;100.00
6134;BME280;3098;42.678;23.364;2023-07-20T02:27:40;94533.63;;;20.78;100.00
6134;BME280;3098;42.678;23.364;2023-07-20T02:30:08;94603.44;;;21.04;100.00
6134;BME280;3098;42.678;23.364;2023-07-20T02:32:36;94600.75;;;21.04;100.00
6134;BME280;3098;42.678;23.364;2023-07-20T02:35:05;94597.00;;;21.34;100.00
6134;BME280;3098;42.678;23.364;2023-07-20T02:37:32;94587.75;;;21.42;100.00
6134;BME280;3098;42.678;23.364;2023-07-20T02:40:01;94360.50;;;19.74;100.00
6134;BME280;3098;42.678;23.364;2023-07-20T02:42:29;94549.44;;;20.80;100.00
6134;BME280;3098;42.678;23.364;2023-07-20T02:44:56;94581.84;;;20.94;100.00
6134;BME280;3098;42.678;23.364;2023-07-20T02:47:23;94578.31;;;20.86;100.00
6134;BME280;3098;42.678;23.364;2023-07-20T02:49:50;94506.53;;;20.36;100.00
6134;BME280;3098;42.678;23.364;2023-07-20T02:52:17;94569.84;;;20.81;100.00
6134;BME280;3098;42.678;23.364;2023-07-20T02:54:44;94554.44;;;20.74;100.00
6134;BME280;3098;42.678;23.364;2023-07-20T02:57:13;94504.25;;;20.41;100.00
6134;BME280;3098;42.678;23.364;2023-07-20T02:59:40;94346.16;;;19.45;100.00
6134;BME280;3098;42.678;23.364;2023-07-20T03:02:07;94577.59;;;21.03;100.00
6134;BME280;3098;42.678;23.364;2023-07-20T03:04:36;94425.59;;;20.00;100.00
6134;BME280;3098;42.678;23.364;2023-07-20T03:07:04;94506.69;;;20.71;100.00
6134;BME280;3098;42.678;23.364;2023-07-20T03:09:32;94566.13;;;21.20;100.00
6134;BME280;3098;42.678;23.364;2023-07-20T03:12:00;94570.00;;;21.19;100.00
6134;BME280;3098;42.678;23.364;2023-07-20T03:14:29;94570.66;;;20.95;100.00
6134;BME280;3098;42.678;23.364;2023-07-20T03:16:56;94577.59;;;21.03;100.00
6134;BME280;3098;42.678;23.364;2023-07-20T03:19:23;94471.56;;;20.50;100.00
6134;BME280;3098;42.678;23.364;2023-07-20T03:21:50;94587.34;;;21.36;100.00
6134;BME280;3098;42.678;23.364;2023-07-20T03:24:17;94544.09;;;21.01;100.00
6134;BME280;3098;42.678;23.364;2023-07-20T03:26:44;94532.94;;;21.02;100.00
6134;BME280;3098;42.678;23.364;2023-07-20T03:29:11;94472.44;;;20.82;100.00
6134;BME280;3098;42.678;23.364;2023-07-20T03:31:40;94548.44;;;21.34;100.00
6134;BME280;3098;42.678;23.364;2023-07-20T03:34:07;94500.94;;;20.87;100.00
6134;BME280;3098;42.678;23.364;2023-07-20T03:36:35;94477.84;;;20.93;100.00
6134;BME280;3098;42.678;23.364;2023-07-20T03:39:02;94586.59;;;21.46;100.00
6134;BME280;3098;42.678;23.364;2023-07-20T03:41:29;94499.81;;;21.02;100.00
6134;BME280;3098;42.678;23.364;2023-07-20T03:43:56;94414.28;;;20.60;100.00
6134;BME280;3098;42.678;23.364;2023-07-20T03:46:23;94600.50;;;21.73;100.00
6134;BME280;3098;42.678;23.364;2023-07-20T03:48:52;94523.38;;;21.44;100.00
6134;BME280;3098;42.678;23.364;2023-07-20T03:51:19;94606.69;;;22.02;100.00
6134;BME280;3098;42.678;23.364;2023-07-20T03:53:46;94589.31;;;22.27;100.00
6134;BME280;3098;42.678;23.364;2023-07-20T03:56:13;94598.91;;;22.43;100.00
6134;BME280;3098;42.678;23.364;2023-07-20T03:58:40;94488.31;;;21.30;100.00
6134;BME280;3098;42.678;23.364;2023-07-20T04:01:09;94599.34;;;21.81;100.00
6134;BME280;3098;42.678;23.364;2023-07-20T04:03:36;94602.81;;;21.78;100.00
6134;BME280;3098;42.678;23.364;2023-07-20T04:06:05;94420.84;;;20.77;100.00
6134;BME280;3098;42.678;23.364;2023-07-20T04:08:33;94601.63;;;22.39;100.00
6134;BME280;3098;42.678;23.364;2023-07-20T04:11:01;94550.69;;;22.27;100.00
6134;BME280;3098;42.678;23.364;2023-07-20T04:13:30;94442.81;;;21.49;100.00
6134;BME280;3098;42.678;23.364;2023-07-20T04:15:59;94437.38;;;21.60;100.00
6134;BME280;3098;42.678;23.364;2023-07-20T04:18:28;94595.66;;;22.97;100.00
6134;BME280;3098;42.678;23.364;2023-07-20T04:20:55;94587.38;;;23.32;100.00
6134;BME280;3098;42.678;23.364;2023-07-20T04:23:24;94590.84;;;23.88;100.00
6134;BME280;3098;42.678;23.364;2023-07-20T04:25:51;94365.44;;;22.92;99.63
6134;BME280;3098;42.678;23.364;2023-07-20T04:28:18;94585.06;;;25.05;94.78
6134;BME280;3098;42.678;23.364;2023-07-20T04:30:48;94581.16;;;25.63;90.88
6134;BME280;3098;42.678;23.364;2023-07-20T04:33:15;94478.41;;;24.47;90.07
6134;BME280;3098;42.678;23.364;2023-07-20T04:35:47;94585.84;;;25.32;89.93
6134;BME280;3098;42.678;23.364;2023-07-20T04:38:15;94524.59;;;25.81;85.96
6134;BME280;3098;42.678;23.364;2023-07-20T04:40:45;94577.00;;;25.82;86.66
6134;BME280;3098;42.678;23.364;2023-07-20T04:43:13;94577.00;;;25.28;88.10
6134;BME280;3098;42.678;23.364;2023-07-20T04:45:40;94436.47;;;25.62;83.85
6134;BME280;3098;42.678;23.364;2023-07-20T04:48:10;94576.97;;;27.50;78.04
6134;BME280;3098;42.678;23.364;2023-07-20T04:50:38;94520.84;;;27.16;76.35
6134;BME280;3098;42.678;23.364;2023-07-20T04:53:05;94425.84;;;26.70;75.60
6134;BME280;3098;42.678;23.364;2023-07-20T04:55:32;94515.94;;;27.27;75.91
6134;BME280;3098;42.678;23.364;2023-07-20T04:58:03;94401.81;;;27.65;69.49
6134;BME280;3098;42.678;23.364;2023-07-20T05:00:32;94590.25;;;29.31;66.92
6134;BME280;3098;42.678;23.364;2023-07-20T05:03:00;94329.16;;;28.83;62.62
6134;BME280;3098;42.678;23.364;2023-07-20T05:05:30;94574.28;;;31.08;60.24
6134;BME280;3098;42.678;23.364;2023-07-20T05:07:59;94579.19;;;31.35;56.30
6134;BME280;3098;42.678;23.364;2023-07-20T05:10:26;94545.53;;;31.34;55.49
6134;BME280;3098;42.678;23.364;2023-07-20T05:12:54;94382.63;;;28.14;59.46
6134;BME280;3098;42.678;23.364;2023-07-20T05:15:22;94587.22;;;29.13;63.35
6134;BME280;3098;42.678;23.364;2023-07-20T05:17:50;94527.31;;;28.80;62.96
6134;BME280;3098;42.678;23.364;2023-07-20T05:20:17;94537.00;;;29.98;59.45
6134;BME280;3098;42.678;23.364;2023-07-20T05:22:46;94362.53;;;28.49;60.90
6134;BME280;3098;42.678;23.364;2023-07-20T05:25:15;94367.78;;;30.00;55.82
6134;BME280;3098;42.678;23.364;2023-07-20T05:27:45;94544.59;;;30.63;55.22
6134;BME280;3098;42.678;23.364;2023-07-20T05:30:12;94598.72;;;30.59;54.88
6134;BME280;3098;42.678;23.364;2023-07-20T05:32:42;94467.53;;;30.30;55.07
6134;BME280;3098;42.678;23.364;2023-07-20T05:35:12;94399.47;;;30.54;52.63
6134;BME280;3098;42.678;23.364;2023-07-20T05:37:40;94409.91;;;31.39;49.84
6134;BME280;3098;42.678;23.364;2023-07-20T05:40:09;94452.22;;;29.14;54.34
6134;BME280;3098;42.678;23.364;2023-07-20T05:42:37;94395.84;;;27.70;59.21
6134;BME280;3098;42.678;23.364;2023-07-20T05:45:06;94593.25;;;28.79;61.30
6134;BME280;3098;42.678;23.364;2023-07-20T05:47:34;94604.56;;;30.36;56.31
6134;BME280;3098;42.678;23.364;2023-07-20T05:50:04;94605.84;;;31.65;54.15
6134;BME280;3098;42.678;23.364;2023-07-20T05:52:32;94396.13;;;27.60;57.63
6134;BME280;3098;42.678;23.364;2023-07-20T05:55:00;94617.25;;;27.58;64.36
6134;BME280;3098;42.678;23.364;2023-07-20T05:57:27;94609.50;;;29.78;59.38
6134;BME280;3098;42.678;23.364;2023-07-20T05:59:55;94620.41;;;30.88;55.12
6134;BME280;3098;42.678;23.364;2023-07-20T06:02:22;94593.63;;;31.57;52.75
6134;BME280;3098;42.678;23.364;2023-07-20T06:04:49;94432.47;;;30.81;51.10
6134;BME280;3098;42.678;23.364;2023-07-20T06:07:18;94452.63;;;31.76;49.85
6134;BME280;3098;42.678;23.364;2023-07-20T06:09:45;94542.25;;;32.55;49.58
6134;BME280;3098;42.678;23.364;2023-07-20T06:12:13;94468.59;;;29.64;56.27
6134;BME280;3098;42.678;23.364;2023-07-20T06:14:40;94434.34;;;30.41;53.51
6134;BME280;3098;42.678;23.364;2023-07-20T06:17:11;94600.69;;;32.83;49.28
6134;BME280;3098;42.678;23.364;2023-07-20T06:19:38;94593.31;;;32.53;48.55
6134;BME280;3098;42.678;23.364;2023-07-20T06:22:06;94531.31;;;29.17;57.68
6134;BME280;3098;42.678;23.364;2023-07-20T06:24:35;94582.75;;;32.24;51.40
6134;BME280;3098;42.678;23.364;2023-07-20T06:27:03;94411.09;;;32.32;48.62
6134;BME280;3098;42.678;23.364;2023-07-20T06:29:31;94514.91;;;32.79;46.93
6134;BME280;3098;42.678;23.364;2023-07-20T06:32:00;94471.19;;;29.93;53.40
6134;BME280;3098;42.678;23.364;2023-07-20T06:34:27;94576.03;;;32.07;51.86
6134;BME280;3098;42.678;23.364;2023-07-20T06:36:55;94508.13;;;30.66;52.14
6134;BME280;3098;42.678;23.364;2023-07-20T06:39:22;94580.16;;;30.29;54.94
6134;BME280;3098;42.678;23.364;2023-07-20T06:41:51;94564.13;;;32.10;51.22
6134;BME280;3098;42.678;23.364;2023-07-20T06:44:19;94571.06;;;30.66;53.83
6134;BME280;3098;42.678;23.364;2023-07-20T06:46:47;94473.06;;;29.07;57.42
6134;BME280;3098;42.678;23.364;2023-07-20T06:49:24;94441.28;;;29.01;57.30
6134;BME280;3098;42.678;23.364;2023-07-20T06:51:53;94325.06;;;29.13;54.72
6134;BME280;3098;42.678;23.364;2023-07-20T06:54:21;94347.44;;;31.24;51.09
6134;BME280;3098;42.678;23.364;2023-07-20T06:56:48;94507.00;;;31.68;49.46
6134;BME280;3098;42.678;23.364;2023-07-20T06:59:18;94322.19;;;29.63;51.84
6134;BME280;3098;42.678;23.364;2023-07-20T07:01:46;94499.25;;;30.40;54.31
6134;BME280;3098;42.678;23.364;2023-07-20T07:04:14;94295.41;;;31.24;48.89
6134;BME280;3098;42.678;23.364;2023-07-20T07:06:42;94359.13;;;30.24;50.10
6134;BME280;3098;42.678;23.364;2023-07-20T07:09:11;94594.47;;;32.06;51.52
6134;BME280;3098;42.678;23.364;2023-07-20T07:11:39;94472.63;;;30.53;52.22
6134;BME280;3098;42.678;23.364;2023-07-20T07:14:07;94612.25;;;29.78;54.74
6134;BME280;3098;42.678;23.364;2023-07-20T07:16:50;94600.09;;;28.99;59.47
6134;BME280;3098;42.678;23.364;2023-07-20T07:19:18;94453.47;;;28.30;58.18
6134;BME280;3098;42.678;23.364;2023-07-20T07:21:47;94406.34;;;28.71;56.60
6134;BME280;3098;42.678;23.364;2023-07-20T07:24:16;94447.06;;;28.90;55.91
6134;BME280;3098;42.678;23.364;2023-07-20T07:26:44;94570.59;;;29.23;55.70
6134;BME280;3098;42.678;23.364;2023-07-20T07:29:12;94527.91;;;30.92;51.14
6134;BME280;3098;42.678;23.364;2023-07-20T07:31:39;94651.66;;;31.86;51.61
6134;BME280;3098;42.678;23.364;2023-07-20T07:34:08;94438.78;;;31.30;48.84
6134;BME280;3098;42.678;23.364;2023-07-20T07:36:35;94328.09;;;30.39;48.89
6134;BME280;3098;42.678;23.364;2023-07-20T07:39:03;94636.16;;;32.41;47.83
6134;BME280;3098;42.678;23.364;2023-07-20T07:41:31;94536.63;;;30.77;49.49
6134;BME280;3098;42.678;23.364;2023-07-20T07:43:59;94631.97;;;31.78;49.99
6134;BME280;3098;42.678;23.364;2023-07-20T07:46:27;94575.03;;;31.52;49.55
6134;BME280;3098;42.678;23.364;2023-07-20T07:48:54;94583.19;;;32.22;48.74
6134;BME280;3098;42.678;23.364;2023-07-20T07:51:23;94635.97;;;33.81;45.66
6134;BME280;3098;42.678;23.364;2023-07-20T07:53:53;94603.28;;;32.68;46.71
6134;BME280;3098;42.678;23.364;2023-07-20T07:56:21;94580.97;;;31.50;49.00
6134;BME280;3098;42.678;23.364;2023-07-20T07:58:50;94601.28;;;33.23;46.74
6134;BME280;3098;42.678;23.364;2023-07-20T08:01:17;94528.75;;;34.28;44.04
6134;BME280;3098;42.678;23.364;2023-07-20T08:03:49;94598.94;;;35.33;41.66
6134;BME280;3098;42.678;23.364;2023-07-20T08:06:19;94477.28;;;34.73;42.32
6134;BME280;3098;42.678;23.364;2023-07-20T08:08:49;94620.91;;;35.28;42.98
6134;BME280;3098;42.678;23.364;2023-07-20T08:11:17;94632.03;;;35.62;41.69
6134;BME280;3098;42.678;23.364;2023-07-20T08:13:46;94639.41;;;33.48;44.81
6134;BME280;3098;42.678;23.364;2023-07-20T08:16:14;94645.97;;;33.51;45.09
6134;BME280;3098;42.678;23.364;2023-07-20T08:18:44;94452.28;;;31.16;47.76
6134;BME280;3098;42.678;23.364;2023-07-20T08:21:21;94446.56;;;31.90;46.62
6134;BME280;3098;42.678;23.364;2023-07-20T08:23:50;94439.84;;;31.73;47.36
6134;BME280;3098;42.678;23.364;2023-07-20T08:26:18;94534.84;;;32.16;49.43
6134;BME280;3098;42.678;23.364;2023-07-20T08:28:48;94317.00;;;31.13;48.79
6134;BME280;3098;42.678;23.364;2023-07-20T08:31:15;94324.38;;;30.33;50.65
6134;BME280;3098;42.678;23.364;2023-07-20T08:33:43;94604.97;;;32.75;49.96
6134;BME280;3098;42.678;23.364;2023-07-20T08:36:10;94451.75;;;30.77;48.47
6134;BME280;3098;42.678;23.364;2023-07-20T08:38:39;94316.91;;;29.81;48.23
6134;BME280;3098;42.678;23.364;2023-07-20T08:41:11;94499.28;;;31.45;46.53
6134;BME280;3098;42.678;23.364;2023-07-20T08:43:41;94257.38;;;29.63;46.25
6134;BME280;3098;42.678;23.364;2023-07-20T08:46:12;94645.78;;;32.46;45.30
6134;BME280;3098;42.678;23.364;2023-07-20T08:48:41;94592.84;;;31.56;44.24
6134;BME280;3098;42.678;23.364;2023-07-20T08:51:11;94528.31;;;30.59;44.77
6134;BME280;3098;42.678;23.364;2023-07-20T08:53:45;94525.56;;;31.03;44.82
6134;BME280;3098;42.678;23.364;2023-07-20T08:56:16;94619.22;;;32.42;44.50
6134;BME280;3098;42.678;23.364;2023-07-20T08:58:44;94447.00;;;31.30;43.06
6134;BME280;3098;42.678;23.364;2023-07-20T09:01:17;94259.75;;;30.27;43.19
6134;BME280;3098;42.678;23.364;2023-07-20T09:03:46;94577.31;;;31.93;42.71
6134;BME280;3098;42.678;23.364;2023-07-20T09:06:13;94428.53;;;30.60;43.35
6134;BME280;3098;42.678;23.364;2023-07-20T09:08:43;94655.94;;;31.87;43.84
6134;BME280;3098;42.678;23.364;2023-07-20T09:11:12;94228.41;;;29.44;42.02
6134;BME280;3098;42.678;23.364;2023-07-20T09:13:44;94608.38;;;31.81;42.68
6134;BME280;3098;42.678;23.364;2023-07-20T09:16:13;94528.19;;;30.85;43.65
6134;BME280;3098;42.678;23.364;2023-07-20T09:18:41;94613.13;;;31.99;43.17
6134;BME280;3098;42.678;23.364;2023-07-20T09:21:09;94563.28;;;32.49;41.78
6134;BME280;3098;42.678;23.364;2023-07-20T09:23:38;94531.94;;;32.10;41.60
6134;BME280;3098;42.678;23.364;2023-07-20T09:26:10;94519.94;;;32.35;40.88
6134;BME280;3098;42.678;23.364;2023-07-20T09:28:43;94347.16;;;31.31;40.97
6134;BME280;3098;42.678;23.364;2023-07-20T09:31:16;94598.44;;;33.69;41.00
6134;BME280;3098;42.678;23.364;2023-07-20T09:33:44;94610.13;;;34.20;39.51
6134;BME280;3098;42.678;23.364;2023-07-20T09:36:12;94549.34;;;34.33;38.62
6134;BME280;3098;42.678;23.364;2023-07-20T09:38:40;94516.91;;;34.13;38.59
6134;BME280;3098;42.678;23.364;2023-07-20T09:41:12;94599.94;;;34.68;38.56
6134;BME280;3098;42.678;23.364;2023-07-20T09:43:45;94573.47;;;35.00;36.64
6134;BME280;3098;42.678;23.364;2023-07-20T09:46:13;94589.50;;;35.40;37.17
6134;BME280;3098;42.678;23.364;2023-07-20T09:48:51;94593.13;;;35.16;36.12
6134;BME280;3098;42.678;23.364;2023-07-20T09:51:22;94582.69;;;34.02;37.20
6134;BME280;3098;42.678;23.364;2023-07-20T09:53:52;94527.56;;;34.82;36.06
6134;BME280;3098;42.678;23.364;2023-07-20T09:56:22;94347.44;;;33.03;35.85
6134;BME280;3098;42.678;23.364;2023-07-20T09:58:53;94511.09;;;34.58;35.40
6134;BME280;3098;42.678;23.364;2023-07-20T10:01:21;94495.19;;;34.15;34.78
6134;BME280;3098;42.678;23.364;2023-07-20T10:03:53;94443.75;;;33.41;35.33
6134;BME280;3098;42.678;23.364;2023-07-20T10:06:24;94474.66;;;32.49;36.34
6134;BME280;3098;42.678;23.364;2023-07-20T10:08:54;94524.19;;;31.60;38.25
6134;BME280;3098;42.678;23.364;2023-07-20T10:11:26;94383.72;;;30.98;37.72
6134;BME280;3098;42.678;23.364;2023-07-20T10:13:59;94398.91;;;30.59;38.52
6134;BME280;3098;42.678;23.364;2023-07-20T10:16:35;94400.38;;;30.82;38.55
6134;BME280;3098;42.678;23.364;2023-07-20T10:19:05;94554.97;;;31.64;39.81
6134;BME280;3098;42.678;23.364;2023-07-20T10:21:39;94588.22;;;31.44;41.27
6134;BME280;3098;42.678;23.364;2023-07-20T10:24:09;94537.34;;;31.12;41.72
6134;BME280;3098;42.678;23.364;2023-07-20T10:26:38;94269.28;;;29.48;41.33
6134;BME280;3098;42.678;23.364;2023-07-20T10:29:15;94231.72;;;28.92;41.34
6134;BME280;3098;42.678;23.364;2023-07-20T10:31:44;94339.81;;;29.28;42.26
6134;BME280;3098;42.678;23.364;2023-07-20T10:34:13;94573.84;;;30.88;42.61
6134;BME280;3098;42.678;23.364;2023-07-20T10:36:45;94258.53;;;29.19;41.96
6134;BME280;3098;42.678;23.364;2023-07-20T10:39:24;94370.34;;;30.16;41.60
6134;BME280;3098;42.678;23.364;2023-07-20T10:42:00;94349.94;;;29.74;42.15
6134;BME280;3098;42.678;23.364;2023-07-20T10:44:30;94365.59;;;29.27;42.82
6134;BME280;3098;42.678;23.364;2023-07-20T10:47:02;94263.09;;;28.50;42.25
6134;BME280;3098;42.678;23.364;2023-07-20T10:49:33;94393.47;;;29.81;41.83
6134;BME280;3098;42.678;23.364;2023-07-20T10:52:04;94482.50;;;30.16;42.26
6134;BME280;3098;42.678;23.364;2023-07-20T10:54:34;94386.06;;;28.30;45.54
6134;BME280;3098;42.678;23.364;2023-07-20T10:57:24;94545.56;;;29.37;50.49
6134;BME280;3098;42.678;23.364;2023-07-20T11:00:08;94458.69;;;29.45;50.46
6134;BME280;3098;42.678;23.364;2023-07-20T11:02:47;94376.31;;;29.68;48.69
6134;BME280;3098;42.678;23.364;2023-07-20T11:05:35;94515.50;;;31.52;45.05
6134;BME280;3098;42.678;23.364;2023-07-20T11:08:10;94448.16;;;31.11;43.99
6134;BME280;3098;42.678;23.364;2023-07-20T11:10:37;94382.50;;;31.48;42.99
6134;BME280;3098;42.678;23.364;2023-07-20T11:13:26;94376.38;;;31.35;41.54
6134;BME280;3098;42.678;23.364;2023-07-20T11:16:04;94362.84;;;31.40;41.02
6134;BME280;3098;42.678;23.364;2023-07-20T11:18:35;94394.72;;;31.65;40.07
6134;BME280;3098;42.678;23.364;2023-07-20T11:21:08;94323.75;;;31.76;39.75
6134;BME280;3098;42.678;23.364;2023-07-20T11:23:38;94484.25;;;32.08;41.33
6134;BME280;3098;42.678;23.364;2023-07-20T11:26:08;94491.44;;;32.60;40.75
6134;BME280;3098;42.678;23.364;2023-07-20T11:28:38;94487.16;;;32.40;40.71
6134;BME280;3098;42.678;23.364;2023-07-20T11:31:07;94157.41;;;30.55;40.85
6134;BME280;3098;42.678;23.364;2023-07-20T11:33:34;94183.91;;;30.85;40.98
6134;BME280;3098;42.678;23.364;2023-07-20T11:36:02;94370.34;;;32.49;41.16
6134;BME280;3098;42.678;23.364;2023-07-20T11:38:32;94268.72;;;32.16;39.77
6134;BME280;3098;42.678;23.364;2023-07-20T11:41:02;94438.97;;;33.50;39.92
6134;BME280;3098;42.678;23.364;2023-07-20T11:43:30;94477.09;;;33.67;40.43
6134;BME280;3098;42.678;23.364;2023-07-20T11:45:59;94423.94;;;33.37;39.26
6134;BME280;3098;42.678;23.364;2023-07-20T11:48:30;94063.69;;;30.14;40.32
6134;BME280;3098;42.678;23.364;2023-07-20T11:50:58;94460.78;;;32.61;42.07
6134;BME280;3098;42.678;23.364;2023-07-20T11:53:25;94459.88;;;32.55;41.71
6134;BME280;3098;42.678;23.364;2023-07-20T11:55:53;94457.56;;;32.08;42.60
6134;BME280;3098;42.678;23.364;2023-07-20T11:58:22;94338.56;;;31.11;42.60
6134;BME280;3098;42.678;23.364;2023-07-20T12:00:50;94435.13;;;31.92;41.98
6134;BME280;3098;42.678;23.364;2023-07-20T12:03:18;94318.38;;;30.78;43.33
6134;BME280;3098;42.678;23.364;2023-07-20T12:05:48;94450.63;;;31.58;43.54
6134;BME280;3098;42.678;23.364;2023-07-20T12:08:23;94442.63;;;31.02;42.55
6134;BME280;3098;42.678;23.364;2023-07-20T12:10:51;94434.75;;;31.04;42.92
6134;BME280;3098;42.678;23.364;2023-07-20T12:13:18;94199.28;;;29.72;42.60
6134;BME280;3098;42.678;23.364;2023-07-20T12:15:46;94319.97;;;30.57;42.34
6134;BME280;3098;42.678;23.364;2023-07-20T12:18:15;94302.34;;;30.58;42.40
6134;BME280;3098;42.678;23.364;2023-07-20T12:20:58;94218.72;;;30.27;41.84
6134;BME280;3098;42.678;23.364;2023-07-20T12:23:35;94334.50;;;31.25;40.96
6134;BME280;3098;42.678;23.364;2023-07-20T12:26:09;94197.41;;;30.52;40.87
6134;BME280;3098;42.678;23.364;2023-07-20T12:28:41;94243.44;;;30.94;40.26
6134;BME280;3098;42.678;23.364;2023-07-20T12:31:09;94209.94;;;30.81;39.08
6134;BME280;3098;42.678;23.364;2023-07-20T12:33:39;94421.00;;;32.11;40.14
6134;BME280;3098;42.678;23.364;2023-07-20T12:36:08;94376.94;;;32.06;40.29
6134;BME280;3098;42.678;23.364;2023-07-20T12:38:36;94304.72;;;31.72;40.23
6134;BME280;3098;42.678;23.364;2023-07-20T12:41:04;94402.22;;;32.46;40.02
6134;BME280;3098;42.678;23.364;2023-07-20T12:43:31;94423.72;;;32.66;39.22
6134;BME280;3098;42.678;23.364;2023-07-20T12:45:59;94257.16;;;31.84;37.54
6134;BME280;3098;42.678;23.364;2023-07-20T12:48:27;94354.78;;;32.46;36.18
6134;BME280;3098;42.678;23.364;2023-07-20T12:50:55;94369.72;;;32.44;37.06
6134;BME280;3098;42.678;23.364;2023-07-20T12:53:25;94405.38;;;32.72;35.83
6134;BME280;3098;42.678;23.364;2023-07-20T12:55:54;94169.06;;;30.95;35.56
6134;BME280;3098;42.678;23.364;2023-07-20T12:58:22;94162.50;;;31.11;35.27
6134;BME280;3098;42.678;23.364;2023-07-20T13:00:49;94217.16;;;31.33;36.36
6134;BME280;3098;42.678;23.364;2023-07-20T13:03:17;94258.75;;;31.49;37.13
6134;BME280;3098;42.678;23.364;2023-07-20T13:05:49;94399.81;;;32.21;37.09
6134;BME280;3098;42.678;23.364;2023-07-20T13:08:16;94332.44;;;31.83;37.18
6134;BME280;3098;42.678;23.364;2023-07-20T13:10:46;94397.06;;;32.21;37.34
6134;BME280;3098;42.678;23.364;2023-07-20T13:13:14;94340.81;;;31.89;37.41
6134;BME280;3098;42.678;23.364;2023-07-20T13:15:43;94347.06;;;31.90;37.38
6134;BME280;3098;42.678;23.364;2023-07-20T13:18:10;94377.25;;;32.17;37.49